Time;durP1;ratioP1;P1;durP2;ratioP2;P2;SDS_P1;SDS_P2;PMS_P1;PMS_P2;Temp;Humidity;BMP_temperature;BMP_pressure;BME280_temperature;BME280_humidity;BME280_pressure;Samples;Min_cycle;Max_cycle;Signal;HPM_P1;HPM_P2
2022/02/13 09:53:36;;;;;;;7.70;4.22;;;;;;;11.82;33.68;99352.19;5089285;28;20192;-70
2022/02/13 09:56:03;;;;;;;8.20;4.40;;;;;;;11.91;33.99;99345.53;5089268;28;20056;-70
2022/02/13 09:58:30;;;;;;;5.82;3.90;;;;;;;11.25;34.49;99338.91;5089789;28;20040;-70
2022/02/13 10:01:07;;;;;;;7.70;4.60;;;;;;;11.08;35.87;99343.41;5089913;28;20044;-69
2022/02/13 10:03:34;;;;;;;6.47;4.20;;;;;;;11.02;35.41;99335.84;5103288;28;20042;-70
2022/02/13 10:06:12;;;;;;;6.80;4.13;;;;;;;11.05;35.83;99337.44;5109409;28;20078;-69
2022/02/13 10:08:47;;;;;;;6.57;4.30;;;;;;;10.67;36.46;99335.25;5109790;28;20031;-70
2022/02/13 10:11:17;;;;;;;8.55;4.13;;;;;;;10.94;36.22;99323.09;5109746;28;20161;-70
2022/02/13 10:13:49;;;;;;;7.90;4.15;;;;;;;11.53;35.44;99330.22;5110103;28;20109;-70
2022/02/13 10:16:20;;;;;;;6.40;4.03;;;;;;;11.95;33.95;99318.81;5109668;28;20493;-70
2022/02/13 10:18:50;;;;;;;8.38;3.85;;;;;;;11.93;34.24;99304.00;5109484;28;21159;-70
2022/02/13 10:21:51;;;;;;;7.88;4.65;;;;;;;11.53;34.66;99301.16;5109393;28;20040;-70
2022/02/13 10:24:27;;;;;;;6.80;3.70;;;;;;;11.79;35.04;99289.84;5078120;28;20080;-69
2022/02/13 10:27:05;;;;;;;5.75;4.07;;;;;;;12.39;33.73;99282.59;5109787;28;20027;-70
2022/02/13 10:29:34;;;;;;;5.82;4.05;;;;;;;12.28;34.18;99283.31;5108982;28;20569;-69
2022/02/13 10:32:21;;;;;;;8.60;4.05;;;;;;;11.78;34.69;99282.00;5109706;28;20442;-71
2022/02/13 10:35:06;;;;;;;5.93;3.80;;;;;;;11.90;34.90;99297.13;5109581;28;20082;-70
2022/02/13 10:37:55;;;;;;;5.97;3.90;;;;;;;11.64;35.56;99282.91;5108079;28;20065;-71
2022/02/13 10:40:26;;;;;;;7.18;4.20;;;;;;;11.34;35.84;99275.88;5088859;28;20173;-70
2022/02/13 10:43:03;;;;;;;5.95;4.20;;;;;;;10.52;37.41;99271.91;5088641;28;20040;-70
2022/02/13 10:45:29;;;;;;;6.07;4.35;;;;;;;10.43;37.57;99269.78;5088561;28;20044;-70
2022/02/13 10:48:04;;;;;;;5.90;3.67;;;;;;;10.22;38.47;99256.03;5089036;28;20043;-70
2022/02/13 10:50:32;;;;;;;6.88;4.03;;;;;;;10.45;38.50;99240.72;5087806;28;20118;-70
2022/02/13 10:52:59;;;;;;;4.70;3.28;;;;;;;10.61;38.14;99240.69;5085956;28;20455;-69
2022/02/13 10:55:32;;;;;;;5.90;3.55;;;;;;;10.41;38.84;99239.19;5089039;28;20103;-70
2022/02/13 10:57:59;;;;;;;5.47;3.55;;;;;;;10.31;39.43;99239.75;5088263;28;20063;-71
2022/02/13 11:00:30;;;;;;;5.50;3.92;;;;;;;10.45;39.31;99240.72;5088882;28;20043;-71
2022/02/13 11:03:01;;;;;;;5.88;3.50;;;;;;;10.45;39.48;99232.81;5089631;28;20058;-70
2022/02/13 11:05:29;;;;;;;6.65;3.55;;;;;;;10.22;39.74;99242.00;5088238;28;20039;-70
2022/02/13 11:08:01;;;;;;;5.25;3.53;;;;;;;10.13;40.17;99248.63;5087623;28;20557;-71
2022/02/13 11:10:31;;;;;;;6.50;3.83;;;;;;;10.05;40.41;99232.44;5088165;28;20032;-70
2022/02/13 11:12:57;;;;;;;5.93;4.15;;;;;;;10.01;39.96;99236.16;5070145;28;20031;-71
2022/02/13 11:15:28;;;;;;;9.30;4.05;;;;;;;10.03;40.45;99231.66;5088070;28;20092;-70
2022/02/13 11:18:01;;;;;;;6.13;3.38;;;;;;;9.90;40.22;99226.22;5085815;28;20035;-70
2022/02/13 11:20:27;;;;;;;7.72;2.90;;;;;;;9.85;40.66;99230.91;5082998;28;20464;-71
2022/02/13 11:22:53;;;;;;;6.95;3.60;;;;;;;9.76;40.55;99219.09;5087996;28;20036;-70
2022/02/13 11:26:07;;;;;;;9.73;4.22;;;;;;;9.68;41.01;99216.88;5076329;28;20358;-70
2022/02/13 11:28:41;;;;;;;6.75;4.28;;;;;;;9.67;41.40;99215.19;5069467;28;20043;-70
2022/02/13 11:31:07;;;;;;;4.55;3.63;;;;;;;9.58;41.80;99217.47;5069798;28;20058;-70
2022/02/13 11:33:35;;;;;;;6.15;4.07;;;;;;;9.58;42.32;99215.69;5087788;28;20393;-69
2022/02/13 11:36:06;;;;;;;5.50;3.75;;;;;;;9.71;42.74;99212.38;5086308;28;20028;-69
2022/02/13 11:38:38;;;;;;;7.22;4.25;;;;;;;9.74;42.42;99202.53;5087382;28;20044;-70
2022/02/13 11:41:04;;;;;;;11.05;4.30;;;;;;;9.77;42.86;99204.13;5087128;28;20086;-70
2022/02/13 11:43:45;;;;;;;8.52;4.55;;;;;;;9.76;42.96;99202.44;5069835;28;20036;-70
2022/02/13 11:46:36;;;;;;;6.78;4.63;;;;;;;9.72;43.46;99195.63;5087492;28;20060;-69
2022/02/13 11:49:08;;;;;;;6.35;3.63;;;;;;;9.79;43.49;99183.84;5085163;28;20028;-69
2022/02/13 11:51:45;;;;;;;9.48;4.35;;;;;;;9.84;43.47;99185.28;5086851;28;20107;-69
2022/02/13 11:54:29;;;;;;;6.57;4.07;;;;;;;9.81;43.26;99179.34;5087217;28;20046;-70
2022/02/13 11:57:05;;;;;;;6.70;3.58;;;;;;;9.88;43.72;99170.16;5093644;28;20485;-69
2022/02/13 11:59:52;;;;;;;5.05;3.78;;;;;;;9.95;44.33;99160.16;5107853;28;20061;-70
2022/02/13 12:02:37;;;;;;;5.30;3.70;;;;;;;10.01;44.15;99147.47;5107805;28;20408;-68
2022/02/13 12:05:03;;;;;;;5.97;4.57;;;;;;;10.03;44.79;99137.69;5106859;28;20039;-71
2022/02/13 12:07:37;;;;;;;7.60;4.57;;;;;;;10.03;44.85;99140.31;5089941;28;20039;-70
2022/02/13 12:10:06;;;;;;;7.70;4.70;;;;;;;9.97;45.59;99143.31;5106933;28;20035;-70
2022/02/13 12:12:32;;;;;;;10.00;4.85;;;;;;;9.85;46.34;99133.50;5107628;28;20028;-70
2022/02/13 12:14:57;;;;;;;9.48;4.35;;;;;;;9.85;46.40;99109.81;5108035;28;20031;-70
2022/02/13 12:17:24;;;;;;;9.77;5.07;;;;;;;9.94;46.61;99116.31;5107686;28;20036;-70
2022/02/13 12:20:00;;;;;;;9.18;4.70;;;;;;;9.97;47.42;99118.75;5106899;28;20047;-70
2022/02/13 12:22:26;;;;;;;7.38;5.35;;;;;;;9.81;47.80;99106.47;5106690;28;20035;-70
2022/02/13 12:24:52;;;;;;;7.82;5.15;;;;;;;9.85;48.08;99097.47;5094515;28;20040;-70
2022/02/13 12:27:20;;;;;;;9.55;5.53;;;;;;;9.88;48.41;99088.56;5105257;28;20024;-71
2022/02/13 12:30:00;;;;;;;8.60;5.35;;;;;;;9.94;48.70;99082.91;5105236;28;20028;-69
2022/02/13 12:32:31;;;;;;;9.00;5.22;;;;;;;10.03;49.43;99076.28;5087039;28;20055;-70
2022/02/13 12:35:02;;;;;;;12.68;6.55;;;;;;;9.99;49.58;99078.25;5086323;28;20059;-70
2022/02/13 12:37:41;;;;;;;9.77;5.60;;;;;;;9.96;50.34;99075.78;5087248;28;20083;-69
2022/02/13 12:40:13;;;;;;;12.15;5.30;;;;;;;10.04;50.45;99052.50;5086212;28;20396;-70
2022/02/13 12:42:43;;;;;;;11.02;5.55;;;;;;;10.00;50.69;99045.72;5086233;28;20029;-70
2022/02/13 12:45:11;;;;;;;10.70;5.78;;;;;;;10.02;50.99;99049.09;5086520;28;20187;-71
2022/02/13 12:47:39;;;;;;;13.23;6.03;;;;;;;10.01;51.17;99047.41;5086836;28;20042;-70
2022/02/13 12:50:10;;;;;;;10.50;6.05;;;;;;;10.01;52.04;99036.88;5087240;28;20032;-70
2022/02/13 12:52:36;;;;;;;6.75;4.85;;;;;;;9.97;52.14;99024.84;5085311;28;20401;-70
2022/02/13 12:55:09;;;;;;;10.55;5.18;;;;;;;10.01;52.25;99017.59;5090068;28;20063;-70
2022/02/13 12:57:35;;;;;;;11.60;5.38;;;;;;;10.02;52.22;99014.88;5069380;28;20040;-70
2022/02/13 13:00:01;;;;;;;12.93;5.97;;;;;;;10.13;52.22;99014.22;5087500;28;20093;-70
2022/02/13 13:02:26;;;;;;;9.13;5.32;;;;;;;10.14;52.17;98994.00;5087507;28;20048;-70
2022/02/13 13:04:52;;;;;;;10.32;4.55;;;;;;;10.16;52.24;98992.97;5086470;28;20123;-70
2022/02/13 13:07:23;;;;;;;10.68;5.97;;;;;;;10.25;52.53;98991.56;5068962;28;20036;-70
2022/02/13 13:09:50;;;;;;;10.80;5.15;;;;;;;10.29;52.20;98987.84;5085756;28;20047;-70
2022/02/13 13:12:18;;;;;;;9.45;4.93;;;;;;;10.35;52.49;98970.81;5086767;28;20093;-71
2022/02/13 13:14:55;;;;;;;8.45;5.00;;;;;;;10.34;52.61;98975.25;5086147;28;20409;-70
2022/02/13 13:17:21;;;;;;;7.25;4.95;;;;;;;10.43;52.57;98968.56;5086694;28;20028;-70
2022/02/13 13:19:47;;;;;;;13.35;5.45;;;;;;;10.49;51.66;98976.09;5086521;28;20139;-70
2022/02/13 13:22:17;;;;;;;11.38;5.43;;;;;;;10.51;51.82;98961.88;5087402;28;20536;-70
2022/02/13 13:24:47;;;;;;;12.93;5.55;;;;;;;10.56;51.86;98956.31;5085386;28;20059;-69
2022/02/13 13:27:19;;;;;;;14.18;5.40;;;;;;;10.63;51.64;98935.69;5086740;28;20024;-68
2022/02/13 13:29:46;;;;;;;11.63;4.57;;;;;;;10.66;51.00;98933.72;5086087;28;20089;-69
2022/02/13 13:32:20;;;;;;;24.05;6.65;;;;;;;10.67;51.09;98929.28;5086285;28;20036;-71
2022/02/13 13:34:46;;;;;;;9.07;5.57;;;;;;;10.70;51.38;98927.28;5085929;28;20040;-69
2022/02/13 13:37:29;;;;;;;8.68;5.20;;;;;;;10.77;51.26;98926.91;5087512;28;20036;-71
2022/02/13 13:40:01;;;;;;;12.45;5.80;;;;;;;10.73;51.08;98918.31;5089804;28;20040;-70
2022/02/13 13:42:32;;;;;;;8.43;5.78;;;;;;;10.70;51.27;98910.63;5073142;28;20032;-69
2022/02/13 13:45:10;;;;;;;13.27;5.07;;;;;;;10.70;50.85;98913.25;5089442;28;20091;-70
2022/02/13 13:47:38;;;;;;;16.38;5.43;;;;;;;10.73;51.42;98903.38;5089432;28;20044;-70
2022/02/13 13:50:05;;;;;;;9.63;5.43;;;;;;;10.75;50.61;98900.63;5072045;28;20028;-70
2022/02/13 13:52:30;;;;;;;12.43;4.97;;;;;;;10.75;50.84;98895.34;5090648;28;20489;-69
2022/02/13 13:54:55;;;;;;;11.85;6.00;;;;;;;10.76;50.54;98890.94;5089543;28;20050;-69
2022/02/13 13:57:21;;;;;;;9.88;5.07;;;;;;;10.80;50.69;98895.06;5096330;28;20070;-70
2022/02/13 13:59:46;;;;;;;8.40;4.95;;;;;;;10.80;50.87;98893.28;5109295;28;20495;-70
2022/02/13 14:02:30;;;;;;;7.60;5.13;;;;;;;10.80;50.80;98888.00;5109842;28;20050;-70
2022/02/13 14:04:55;;;;;;;10.68;5.28;;;;;;;10.77;51.03;98882.94;5106629;28;20484;-70
2022/02/13 14:07:21;;;;;;;10.90;5.47;;;;;;;10.66;50.42;98870.44;5091718;28;20031;-69
2022/02/13 14:09:48;;;;;;;9.02;5.40;;;;;;;10.63;50.83;98868.03;5107522;28;20551;-70
2022/02/13 14:12:14;;;;;;;10.75;4.90;;;;;;;10.55;50.70;98858.91;5109925;28;20100;-69
2022/02/13 14:14:40;;;;;;;14.70;5.65;;;;;;;10.44;50.38;98852.53;5108839;28;20428;-69
2022/02/13 14:17:06;;;;;;;12.15;5.78;;;;;;;10.41;50.83;98833.41;5109938;28;20039;-70
2022/02/13 14:19:32;;;;;;;15.55;4.93;;;;;;;10.44;50.46;98842.00;5109183;28;20572;-70
2022/02/13 14:21:58;;;;;;;7.65;4.47;;;;;;;10.51;50.58;98834.53;5109652;28;20043;-70
2022/02/13 14:24:23;;;;;;;9.75;5.72;;;;;;;10.56;50.50;98839.50;5109642;28;20031;-70
2022/02/13 14:26:49;;;;;;;10.93;5.55;;;;;;;10.58;50.82;98827.06;5109558;28;20054;-69
2022/02/13 14:29:15;;;;;;;10.50;4.85;;;;;;;10.64;50.87;98826.69;5091571;28;20533;-70
2022/02/13 14:31:40;;;;;;;9.18;5.10;;;;;;;10.63;50.36;98817.94;5110536;28;20024;-70
2022/02/13 14:34:06;;;;;;;14.85;5.95;;;;;;;10.61;50.74;98822.47;5111852;28;20036;-69
2022/02/13 14:36:31;;;;;;;12.52;5.18;;;;;;;10.61;50.18;98825.09;5109590;28;20051;-68
2022/02/13 14:38:57;;;;;;;7.28;5.30;;;;;;;10.50;50.34;98812.59;5108934;28;20052;-69
2022/02/13 14:41:22;;;;;;;12.95;5.82;;;;;;;10.48;49.94;98829.44;5086816;28;20027;-69
2022/02/13 14:43:47;;;;;;;9.90;5.43;;;;;;;10.46;50.60;98810.25;5109601;28;20051;-69
2022/02/13 14:46:14;;;;;;;11.43;4.90;;;;;;;10.41;50.48;98797.41;5109413;28;20115;-69
2022/02/13 14:48:44;;;;;;;11.63;5.93;;;;;;;10.42;50.45;98792.97;5105182;28;20076;-69
2022/02/13 14:51:09;;;;;;;8.35;4.85;;;;;;;10.39;50.49;98801.91;5090887;28;20523;-69
2022/02/13 14:53:35;;;;;;;10.63;5.68;;;;;;;10.33;50.23;98786.50;5091270;28;20032;-69
2022/02/13 14:56:00;;;;;;;13.00;6.20;;;;;;;10.34;50.51;98788.19;5108796;28;20051;-69
2022/02/13 14:58:25;;;;;;;10.48;5.40;;;;;;;10.31;50.63;98783.97;5109022;28;20051;-69
2022/02/13 15:00:51;;;;;;;11.23;5.65;;;;;;;10.35;50.67;98794.31;5108055;28;20031;-69
2022/02/13 15:03:16;;;;;;;13.48;5.82;;;;;;;10.38;50.52;98783.56;5109150;28;20119;-70
2022/02/13 15:05:41;;;;;;;12.70;6.95;;;;;;;10.39;50.37;98775.56;5108661;28;20490;-69
2022/02/13 15:08:07;;;;;;;9.23;5.65;;;;;;;10.40;50.83;98785.16;5108436;28;20093;-69
2022/02/13 15:10:32;;;;;;;15.07;5.40;;;;;;;10.38;50.80;98778.28;5108944;28;20023;-70
2022/02/13 15:12:57;;;;;;;17.02;6.38;;;;;;;10.37;50.95;98777.44;5108590;28;20047;-69
2022/02/13 15:15:23;;;;;;;12.10;5.53;;;;;;;10.37;50.87;98768.72;5108690;28;20039;-69
2022/02/13 15:17:48;;;;;;;8.63;5.88;;;;;;;10.35;50.88;98763.53;5108614;28;20606;-70
2022/02/13 15:20:18;;;;;;;10.45;6.20;;;;;;;10.37;50.68;98763.44;5108301;28;20111;-69
2022/02/13 15:22:48;;;;;;;10.07;6.05;;;;;;;10.30;51.07;98762.97;5108520;28;20396;-69
2022/02/13 15:25:14;;;;;;;13.20;5.93;;;;;;;10.25;50.87;98755.34;5089950;28;20027;-68
2022/02/13 15:27:39;;;;;;;8.48;5.47;;;;;;;10.24;50.78;98752.81;5090207;28;20110;-69
2022/02/13 15:30:05;;;;;;;10.20;6.10;;;;;;;10.24;51.20;98747.56;5108643;28;20136;-70
2022/02/13 15:32:31;;;;;;;27.98;6.95;;;;;;;10.21;51.23;98745.09;5108098;28;20040;-70
2022/02/13 15:34:56;;;;;;;10.50;5.55;;;;;;;10.17;51.61;98747.09;5107777;28;20528;-70
2022/02/13 15:37:21;;;;;;;13.13;6.05;;;;;;;10.15;51.61;98750.78;5104954;28;20041;-69
2022/02/13 15:39:47;;;;;;;11.00;6.25;;;;;;;10.07;51.59;98735.47;5095385;28;20035;-69
2022/02/13 15:42:12;;;;;;;7.82;4.97;;;;;;;10.04;51.92;98730.38;5088013;28;20550;-69
2022/02/13 15:44:38;;;;;;;9.32;6.20;;;;;;;9.99;52.03;98728.06;5087252;28;20024;-69
2022/02/13 15:47:03;;;;;;;11.70;5.57;;;;;;;9.91;51.96;98719.78;5087475;28;20028;-69
2022/02/13 15:49:29;;;;;;;13.60;6.43;;;;;;;9.88;52.66;98725.25;5086923;28;20524;-69
2022/02/13 15:51:54;;;;;;;19.02;6.57;;;;;;;9.84;51.67;98714.06;5087004;28;20111;-70
2022/02/13 15:54:19;;;;;;;12.90;5.38;;;;;;;9.79;52.34;98712.66;5087257;28;20035;-71
2022/02/13 15:56:45;;;;;;;7.85;5.63;;;;;;;9.76;52.23;98718.97;5090458;28;20032;-69
2022/02/13 15:59:10;;;;;;;11.05;6.60;;;;;;;9.72;52.45;98716.63;5107160;28;20035;-69
2022/02/13 16:01:35;;;;;;;12.85;5.90;;;;;;;9.65;52.59;98709.13;5108782;28;20034;-70
2022/02/13 16:04:01;;;;;;;14.45;5.68;;;;;;;9.60;52.99;98700.69;5108276;28;20038;-69
2022/02/13 16:06:26;;;;;;;14.55;6.07;;;;;;;9.56;53.21;98704.44;5106669;28;20040;-69
2022/02/13 16:08:51;;;;;;;12.90;5.53;;;;;;;9.52;52.86;98696.81;5108091;28;20032;-71
2022/02/13 16:11:18;;;;;;;10.80;5.60;;;;;;;9.48;53.56;98701.44;5107147;28;20039;-69
2022/02/13 16:13:44;;;;;;;9.95;5.25;;;;;;;9.43;53.89;98701.72;5104798;28;20032;-69
2022/02/13 16:16:09;;;;;;;10.07;5.93;;;;;;;9.40;53.80;98685.28;5089863;28;20043;-70
2022/02/13 16:18:34;;;;;;;14.57;5.93;;;;;;;9.32;54.13;98684.91;5105099;28;20228;-70
2022/02/13 16:21:00;;;;;;;11.88;5.35;;;;;;;9.26;53.64;98677.41;5107552;28;20047;-68
2022/02/13 16:26:09;;;;;;;13.68;6.40;;;;;;;9.18;54.26;98670.84;5107622;28;20035;-70
2022/02/13 16:28:35;;;;;;;13.30;6.18;;;;;;;9.14;53.93;98671.13;5107304;28;20028;-68
2022/02/13 16:31:00;;;;;;;16.02;6.93;;;;;;;9.07;54.12;98675.91;5108242;28;20035;-70
2022/02/13 16:33:26;;;;;;;11.52;6.68;;;;;;;9.03;54.54;98677.00;5107780;28;20054;-70
2022/02/13 16:35:51;;;;;;;11.82;7.95;;;;;;;9.00;54.95;98678.03;5106957;28;20062;-70
2022/02/13 16:38:17;;;;;;;12.25;6.63;;;;;;;8.97;54.33;98672.16;5107150;28;20568;-70
2022/02/13 16:40:42;;;;;;;14.52;6.75;;;;;;;8.93;54.78;98678.50;5105275;28;20042;-70
2022/02/13 16:43:07;;;;;;;11.30;6.25;;;;;;;8.88;55.12;98665.66;5105717;28;20034;-70
2022/02/13 16:45:33;;;;;;;12.25;5.75;;;;;;;8.82;55.72;98658.97;5106005;28;20032;-70
2022/02/13 16:47:58;;;;;;;13.75;7.10;;;;;;;8.78;55.27;98654.00;5107634;28;20032;-70
2022/02/13 16:50:24;;;;;;;10.48;6.72;;;;;;;8.74;55.13;98655.97;5107405;28;20062;-69
2022/02/13 16:52:49;;;;;;;13.00;7.32;;;;;;;8.73;56.16;98643.75;5105696;28;20114;-69
2022/02/13 16:55:15;;;;;;;12.40;7.35;;;;;;;8.70;56.35;98643.13;5107058;28;20039;-69
2022/02/13 16:57:41;;;;;;;15.85;6.70;;;;;;;8.64;56.16;98639.09;5104568;28;20024;-70
2022/02/13 17:00:07;;;;;;;12.18;6.10;;;;;;;8.59;56.79;98634.09;5106410;28;20117;-69
2022/02/13 17:02:32;;;;;;;13.32;7.07;;;;;;;8.57;56.18;98627.25;5107302;28;21008;-70
2022/02/13 17:04:58;;;;;;;11.73;7.30;;;;;;;8.54;57.09;98614.28;5106557;28;20028;-69
2022/02/13 17:07:23;;;;;;;14.93;7.88;;;;;;;8.53;56.88;98620.47;5089145;28;20031;-68
2022/02/13 17:09:49;;;;;;;13.48;7.30;;;;;;;8.51;57.34;98601.31;5106715;28;20038;-69
2022/02/13 17:12:14;;;;;;;13.93;7.68;;;;;;;8.46;57.46;98609.47;5109332;28;20053;-70
2022/02/13 17:14:39;;;;;;;17.45;8.75;;;;;;;8.46;57.72;98600.75;5111515;28;20706;-70
2022/02/13 17:17:05;;;;;;;13.63;8.27;;;;;;;8.43;57.31;98606.19;5111060;28;20032;-70
2022/02/13 17:19:31;;;;;;;13.27;8.40;;;;;;;8.42;57.75;98600.13;5110335;28;20032;-70
2022/02/13 17:21:56;;;;;;;19.38;7.30;;;;;;;8.42;57.94;98597.50;5075398;28;20117;-70
2022/02/13 17:24:22;;;;;;;16.55;6.78;;;;;;;8.38;58.13;98596.78;5110559;28;20072;-70
2022/02/13 17:26:47;;;;;;;15.70;8.90;;;;;;;8.35;57.79;98596.97;5091989;28;20050;-70
2022/02/13 17:29:12;;;;;;;13.77;7.88;;;;;;;8.35;57.57;98594.34;5110854;28;20027;-70
2022/02/13 17:31:38;;;;;;;14.48;7.18;;;;;;;8.33;57.82;98595.38;5110908;28;20035;-70
2022/02/13 17:34:03;;;;;;;15.20;7.72;;;;;;;8.29;57.68;98586.81;5110372;28;20532;-69
2022/02/13 17:36:29;;;;;;;12.40;8.00;;;;;;;8.31;57.64;98586.72;5110364;28;20035;-69
2022/02/13 17:38:56;;;;;;;9.55;7.25;;;;;;;8.29;57.93;98578.09;5109704;28;20374;-70
2022/02/13 17:41:22;;;;;;;12.27;8.18;;;;;;;8.30;58.22;98579.81;5109932;28;20496;-70
2022/02/13 17:43:48;;;;;;;19.45;6.90;;;;;;;8.30;58.15;98561.41;5110724;28;20068;-70
2022/02/13 17:46:13;;;;;;;12.35;6.57;;;;;;;8.32;57.91;98559.56;5110099;28;20027;-70
2022/02/13 17:48:38;;;;;;;13.68;6.88;;;;;;;8.30;57.53;98570.13;5111195;28;20039;-69
2022/02/13 17:51:04;;;;;;;11.75;7.03;;;;;;;8.30;57.95;98561.41;5110304;28;20061;-69
2022/02/13 17:53:29;;;;;;;10.32;6.28;;;;;;;8.29;57.84;98551.84;5109123;28;20069;-70
2022/02/13 17:55:55;;;;;;;13.98;7.05;;;;;;;8.28;57.68;98550.16;5109874;28;20034;-72
2022/02/13 17:58:21;;;;;;;19.67;6.80;;;;;;;8.29;57.32;98554.47;5110274;28;20085;-71
2022/02/13 18:00:47;;;;;;;10.63;6.88;;;;;;;8.28;57.36;98555.41;5109866;28;20046;-71
2022/02/13 18:03:13;;;;;;;15.80;6.43;;;;;;;8.28;57.44;98545.75;5110869;28;20036;-70
2022/02/13 18:05:39;;;;;;;13.48;7.25;;;;;;;8.32;57.18;98530.66;5091825;28;20108;-70
2022/02/13 18:08:05;;;;;;;12.70;6.20;;;;;;;8.32;57.33;98535.91;5110126;28;20028;-70
2022/02/13 18:10:30;;;;;;;8.68;6.28;;;;;;;8.35;56.36;98523.44;5109034;28;20089;-70
2022/02/13 18:12:57;;;;;;;11.65;6.25;;;;;;;8.36;56.72;98540.03;5110167;28;20427;-70
2022/02/13 18:15:23;;;;;;;10.13;5.22;;;;;;;8.35;56.63;98525.22;5109638;28;20032;-70
2022/02/13 18:17:48;;;;;;;14.63;6.90;;;;;;;8.35;56.61;98518.19;5111073;28;20092;-71
2022/02/13 18:20:14;;;;;;;12.40;6.88;;;;;;;8.36;56.44;98522.50;5109558;28;20043;-70
2022/02/13 18:22:39;;;;;;;17.65;7.95;;;;;;;8.34;55.89;98508.63;5109518;28;20646;-71
2022/02/13 18:25:05;;;;;;;10.07;6.38;;;;;;;8.35;56.32;98512.94;5109008;28;20053;-70
2022/02/13 18:27:31;;;;;;;14.52;5.93;;;;;;;8.34;56.38;98507.75;5109991;28;20043;-70
2022/02/13 18:29:56;;;;;;;8.10;5.53;;;;;;;8.35;56.37;98493.72;5109358;28;20054;-69
2022/02/13 18:32:22;;;;;;;11.90;5.10;;;;;;;8.34;56.51;98499.88;5108797;28;20076;-70
2022/02/13 18:34:47;;;;;;;8.00;5.22;;;;;;;8.36;56.00;98488.34;5109577;28;20058;-69
2022/02/13 18:37:13;;;;;;;9.77;6.20;;;;;;;8.36;55.81;98480.47;5109868;28;20042;-69
2022/02/13 18:39:39;;;;;;;9.35;6.32;;;;;;;8.40;55.77;98489.06;5109166;28;20114;-69
2022/02/13 18:42:05;;;;;;;7.47;5.32;;;;;;;8.35;56.44;98484.03;5109244;28;20031;-69
2022/02/13 18:44:33;;;;;;;12.95;6.10;;;;;;;8.38;56.31;98485.63;5109191;28;20066;-69
2022/02/13 18:46:59;;;;;;;13.05;5.40;;;;;;;8.38;56.02;98472.50;5088400;28;20028;-69
2022/02/13 18:49:25;;;;;;;8.60;5.60;;;;;;;8.40;56.16;98490.84;5101101;28;20466;-70
2022/02/13 18:51:52;;;;;;;7.45;4.70;;;;;;;8.38;55.61;98448.88;5096672;28;20032;-70
2022/02/13 18:54:18;;;;;;;12.20;5.28;;;;;;;8.44;55.89;98450.31;5089200;28;20036;-70
2022/02/13 18:56:46;;;;;;;11.85;6.10;;;;;;;8.44;56.10;98452.94;5088360;28;20058;-70
2022/02/13 18:59:12;;;;;;;11.48;5.45;;;;;;;8.43;55.79;98438.97;5088292;28;20048;-70
2022/02/13 19:01:37;;;;;;;8.38;4.57;;;;;;;8.42;55.79;98445.16;5090909;28;20539;-70
2022/02/13 19:04:03;;;;;;;8.23;5.97;;;;;;;8.39;55.94;98437.41;5071039;28;20039;-69
2022/02/13 19:06:28;;;;;;;12.40;6.25;;;;;;;8.43;55.95;98440.75;5070106;28;20711;-70
2022/02/13 19:08:53;;;;;;;7.70;4.80;;;;;;;8.45;55.64;98437.09;5088219;28;20032;-70
2022/02/13 19:11:21;;;;;;;8.60;5.28;;;;;;;8.46;55.94;98419.53;5088021;28;20489;-70
2022/02/13 19:13:46;;;;;;;13.75;5.13;;;;;;;8.44;55.76;98419.66;5088848;28;20040;-69
2022/02/13 19:16:12;;;;;;;11.23;5.22;;;;;;;8.44;56.17;98421.41;5093658;28;20032;-70
2022/02/13 19:18:37;;;;;;;11.40;5.15;;;;;;;8.46;55.90;98407.25;5102164;28;20541;-70
2022/02/13 19:21:04;;;;;;;9.50;4.38;;;;;;;8.48;56.57;98420.28;5104513;28;20054;-70
2022/02/13 19:23:29;;;;;;;14.15;5.25;;;;;;;8.50;55.84;98400.03;5108774;28;20077;-70
2022/02/13 19:25:54;;;;;;;14.82;6.15;;;;;;;8.52;56.25;98403.41;5109532;28;20061;-70
2022/02/13 19:28:21;;;;;;;10.88;5.78;;;;;;;8.56;56.17;98416.22;5109340;28;20035;-70
2022/02/13 19:30:55;;;;;;;12.63;5.35;;;;;;;8.60;56.46;98403.75;5108557;28;20034;-70
2022/02/13 19:33:23;;;;;;;12.60;5.68;;;;;;;8.64;55.75;98401.78;5105936;28;20032;-70
2022/02/13 19:35:49;;;;;;;11.48;5.38;;;;;;;8.67;55.63;98396.34;5087804;28;20096;-69
2022/02/13 19:38:14;;;;;;;10.20;4.55;;;;;;;8.72;56.22;98392.47;5087811;28;20054;-70
2022/02/13 19:40:40;;;;;;;12.35;5.50;;;;;;;8.76;55.67;98383.47;5087918;28;20481;-70
2022/02/13 19:43:06;;;;;;;13.88;4.55;;;;;;;8.75;56.19;98381.75;5087944;28;20028;-70
2022/02/13 19:45:34;;;;;;;11.35;4.90;;;;;;;8.75;55.51;98376.50;5087985;28;20055;-70
2022/02/13 19:48:00;;;;;;;8.85;4.43;;;;;;;8.78;56.41;98380.72;5087844;28;20024;-70
2022/02/13 19:50:26;;;;;;;9.02;4.70;;;;;;;8.81;55.85;98377.88;5087152;28;20098;-71
2022/02/13 19:52:52;;;;;;;11.35;4.43;;;;;;;8.83;55.40;98365.50;5086965;28;20096;-70
2022/02/13 19:55:18;;;;;;;11.45;5.28;;;;;;;8.85;56.07;98374.13;5103922;28;20188;-71
2022/02/13 19:57:43;;;;;;;14.20;5.55;;;;;;;8.88;55.71;98368.66;5107680;28;20070;-70
2022/02/13 20:00:10;;;;;;;9.52;4.63;;;;;;;8.90;55.40;98369.41;5107426;28;20092;-70
2022/02/13 20:02:36;;;;;;;14.18;5.18;;;;;;;8.92;55.38;98359.66;5108379;28;20024;-69
2022/02/13 20:05:08;;;;;;;13.07;5.13;;;;;;;8.94;55.69;98376.16;5090277;28;20031;-70
2022/02/13 20:07:34;;;;;;;11.82;4.72;;;;;;;8.95;55.51;98369.13;5090217;28;20088;-70
2022/02/13 20:10:02;;;;;;;10.60;4.10;;;;;;;8.95;55.53;98366.50;5107592;28;20028;-69
2022/02/13 20:12:28;;;;;;;7.85;4.93;;;;;;;8.95;55.57;98372.56;5107720;28;20093;-70
2022/02/13 20:14:54;;;;;;;10.20;4.72;;;;;;;8.95;55.69;98379.63;5107732;28;20076;-70
2022/02/13 20:17:21;;;;;;;7.70;4.10;;;;;;;8.99;55.86;98370.63;5108055;28;20114;-70
2022/02/13 20:19:48;;;;;;;11.00;4.43;;;;;;;9.01;56.28;98359.06;5105988;28;20035;-70
2022/02/13 20:22:14;;;;;;;13.88;4.82;;;;;;;9.06;56.07;98360.50;5087338;28;20028;-70
2022/02/13 20:24:41;;;;;;;9.77;4.88;;;;;;;9.08;55.77;98356.88;5087725;28;20529;-70
2022/02/13 20:27:08;;;;;;;11.48;4.28;;;;;;;9.09;55.83;98365.59;5087285;28;20080;-69
2022/02/13 20:29:34;;;;;;;6.82;4.20;;;;;;;9.11;55.84;98372.44;5087108;28;20028;-70
2022/02/13 20:31:59;;;;;;;10.02;4.95;;;;;;;9.13;55.58;98367.91;5086988;28;20051;-69
2022/02/13 20:34:25;;;;;;;11.18;4.65;;;;;;;9.11;55.86;98347.94;5087183;28;20042;-70
2022/02/13 20:36:51;;;;;;;10.85;4.28;;;;;;;9.14;55.89;98351.19;5087183;28;20398;-69
2022/02/13 20:39:16;;;;;;;11.68;3.80;;;;;;;9.18;55.77;98346.56;5086941;28;20032;-71
2022/02/13 20:41:42;;;;;;;25.70;5.22;;;;;;;9.15;56.12;98344.97;5069969;28;20093;-70
2022/02/13 20:44:08;;;;;;;15.15;4.90;;;;;;;9.14;56.26;98338.03;5088652;28;20386;-70
2022/02/13 20:46:33;;;;;;;8.23;4.13;;;;;;;9.18;55.90;98346.56;5108687;28;20167;-70
2022/02/13 20:48:59;;;;;;;8.07;4.53;;;;;;;9.23;56.01;98339.22;5111849;28;20521;-73
2022/02/13 20:51:24;;;;;;;16.65;5.45;;;;;;;9.26;55.93;98351.34;5112585;28;20047;-70
2022/02/13 20:53:50;;;;;;;9.43;4.38;;;;;;;9.24;55.62;98341.75;5111574;28;20053;-70
2022/02/13 20:56:15;;;;;;;11.13;4.65;;;;;;;9.28;56.04;98346.78;5111235;28;20110;-70
2022/02/13 20:58:41;;;;;;;9.30;4.03;;;;;;;9.28;55.71;98334.50;5111545;28;21726;-70
2022/02/13 21:01:06;;;;;;;7.35;4.07;;;;;;;9.29;55.51;98330.91;5063967;28;20040;-69
2022/02/13 21:03:36;;;;;;;13.25;4.65;;;;;;;9.29;55.70;98327.44;5090848;28;20101;-70
2022/02/13 21:06:02;;;;;;;8.25;3.85;;;;;;;9.32;56.19;98330.69;5072029;28;20439;-70
2022/02/13 21:08:28;;;;;;;14.45;3.75;;;;;;;9.36;55.68;98326.09;5091022;28;20044;-70
2022/02/13 21:10:54;;;;;;;13.63;6.35;;;;;;;9.38;55.81;98311.06;5102406;28;20024;-70
2022/02/13 21:13:21;;;;;;;6.93;4.05;;;;;;;9.42;55.85;98323.03;5110804;28;20035;-70
2022/02/13 21:15:47;;;;;;;11.18;3.83;;;;;;;9.41;55.41;98316.09;5110886;28;20446;-71
2022/02/13 21:18:13;;;;;;;8.88;3.80;;;;;;;9.42;55.95;98323.03;5111366;28;20040;-69
2022/02/13 21:20:40;;;;;;;14.18;3.85;;;;;;;9.43;55.28;98314.22;5111106;28;20032;-69
2022/02/13 21:23:06;;;;;;;9.60;4.57;;;;;;;9.43;56.14;98314.22;5111370;28;20115;-71
2022/02/13 21:25:32;;;;;;;13.00;4.18;;;;;;;9.44;55.83;98313.25;5110713;28;20059;-69
2022/02/13 21:27:57;;;;;;;7.13;3.65;;;;;;;9.46;55.67;98304.31;5111003;28;20566;-70
2022/02/13 21:30:23;;;;;;;13.10;6.63;;;;;;;9.46;55.74;98314.00;5110214;28;20027;-70
2022/02/13 21:32:48;;;;;;;7.30;3.22;;;;;;;9.48;55.68;98309.47;5110267;28;20115;-70